Time;durP1;ratioP1;P1;durP2;ratioP2;P2;SDS_P1;SDS_P2;PMS_P1;PMS_P2;Temp;Humidity;BMP_temperature;BMP_pressure;BME280_temperature;BME280_humidity;BME280_pressure;Samples;Min_cycle;Max_cycle;Signal;HPM_P1;HPM_P2
2022/09/26 00:01:45;;;;;;;10.53;2.70;;;9.30;99.90;;;10.01;100.00;97719.06;5023796;28;20490;-81
2022/09/26 00:04:19;;;;;;;12.03;2.77;;;9.20;99.90;;;9.97;100.00;97715.22;5022770;28;20525;-81
2022/09/26 00:06:52;;;;;;;3.03;2.40;;;9.20;99.90;;;9.97;100.00;97715.22;5021324;28;20839;-81
2022/09/26 00:09:23;;;;;;;3.53;2.63;;;9.20;99.90;;;10.00;100.00;97717.44;5023832;28;20469;-81
2022/09/26 00:11:52;;;;;;;3.10;2.70;;;9.20;99.90;;;9.99;100.00;97702.78;5023339;28;20453;-81
2022/09/26 00:14:25;;;;;;;16.63;2.50;;;9.20;99.90;;;9.99;100.00;97705.41;5022139;28;20501;-81
2022/09/26 00:16:54;;;;;;;5.63;2.07;;;9.20;99.90;;;9.94;100.00;97702.53;5021457;28;20482;-81
2022/09/26 00:19:24;;;;;;;2.43;2.20;;;9.20;99.90;;;9.91;100.00;97697.72;5021167;28;20497;-81
2022/09/26 00:21:53;;;;;;;7.97;2.60;;;9.10;99.90;;;9.83;100.00;97698.66;5021421;28;20819;-81
2022/09/26 00:24:22;;;;;;;7.70;2.80;;;9.00;99.90;;;9.83;100.00;97690.00;5023340;28;20505;-81
2022/09/26 00:26:50;;;;;;;2.40;2.20;;;9.00;99.90;;;9.82;100.00;97694.41;5019106;28;20499;-81
2022/09/26 00:29:19;;;;;;;2.73;2.40;;;9.00;99.90;;;9.83;100.00;97682.97;5023245;28;20499;-81
2022/09/26 00:31:49;;;;;;;5.63;2.60;;;9.00;99.90;;;9.76;100.00;97681.31;5019870;28;20964;-80
2022/09/26 00:34:19;;;;;;;6.13;2.80;;;9.00;99.90;;;9.66;100.00;97678.25;5022456;28;20466;-81
2022/09/26 00:36:51;;;;;;;2.17;1.90;;;8.80;99.90;;;9.59;100.00;97679.00;5020322;28;20467;-81
2022/09/26 00:39:20;;;;;;;15.53;2.53;;;8.80;99.90;;;9.53;100.00;97677.16;5020536;28;20503;-81
2022/09/26 00:41:49;;;;;;;2.30;2.10;;;8.70;99.90;;;9.48;100.00;97682.13;5021885;28;20466;-81
2022/09/26 00:44:42;;;;;;;2.73;2.10;;;8.80;99.90;;;9.45;100.00;97669.47;5019864;28;20469;-81
2022/09/26 00:47:27;;;;;;;2.13;1.93;;;8.80;99.90;;;9.39;100.00;97678.06;5021383;28;20539;-81
2022/09/26 00:50:01;;;;;;;2.53;2.10;;;8.70;99.90;;;9.34;100.00;97677.78;5022140;28;20467;-81
2022/09/26 00:52:39;;;;;;;2.70;2.13;;;8.70;99.90;;;9.31;100.00;97672.97;5019802;28;21347;-81
2022/09/26 00:55:12;;;;;;;8.73;2.30;;;8.60;99.90;;;9.36;100.00;97670.59;5022157;28;20466;-81
2022/09/26 00:57:53;;;;;;;8.70;2.80;;;8.60;99.90;;;9.36;100.00;97670.59;5018473;28;20536;-81
2022/09/26 01:00:23;;;;;;;5.47;2.50;;;8.60;99.90;;;9.33;100.00;97668.38;5020332;28;20504;-81
2022/09/26 01:02:54;;;;;;;32.00;5.67;;;8.50;99.90;;;9.33;100.00;97657.13;5019118;28;20580;-81
2022/09/26 01:05:24;;;;;;;13.73;2.30;;;8.60;99.90;;;9.27;100.00;97666.50;5024420;28;20473;-82
2022/09/26 01:07:57;;;;;;;6.80;1.90;;;8.50;99.90;;;9.22;100.00;97660.25;5018794;28;20559;-82
2022/09/26 01:10:27;;;;;;;11.40;2.43;;;8.40;99.90;;;9.21;100.00;97649.00;5020691;28;20465;-81
2022/09/26 01:12:57;;;;;;;4.07;1.87;;;8.40;99.90;;;9.21;100.00;97653.41;5018756;28;20767;-81
2022/09/26 01:15:26;;;;;;;10.33;2.27;;;8.40;99.90;;;9.19;100.00;97647.56;5018063;28;20498;-81
2022/09/26 01:17:56;;;;;;;5.00;1.90;;;8.30;99.90;;;9.19;100.00;97643.16;5020458;28;20533;-81
2022/09/26 01:20:37;;;;;;;2.30;2.10;;;8.30;99.90;;;9.18;100.00;97631.13;5020086;28;21123;-82
2022/09/26 01:23:57;;;;;;;6.20;2.17;;;8.40;99.90;;;9.19;100.00;97622.31;5018880;28;20487;-81
2022/09/26 01:26:52;;;;;;;2.00;1.67;;;8.30;99.90;;;9.19;100.00;97630.13;5019245;28;20470;-80
2022/09/26 01:30:04;;;;;;;1.80;1.70;;;8.40;99.90;;;9.19;100.00;97632.75;5018900;28;20465;-81
2022/09/26 01:33:07;;;;;;;6.33;2.00;;;8.40;99.90;;;9.09;100.00;97627.03;5021234;28;20461;-81
2022/09/26 01:36:03;;;;;;;1.70;1.60;;;8.30;99.90;;;9.09;100.00;97621.81;5020207;28;20493;-81
2022/09/26 01:38:48;;;;;;;2.33;1.70;;;8.20;99.90;;;9.00;100.00;97617.72;5019220;28;20821;-81
2022/09/26 01:41:38;;;;;;;7.03;2.03;;;8.20;99.90;;;9.04;100.00;97626.78;5020188;28;21072;-81
2022/09/26 01:44:27;;;;;;;2.20;1.97;;;8.20;99.90;;;8.95;100.00;97620.09;5018520;28;20795;-80
2022/09/26 01:47:09;;;;;;;2.20;2.00;;;8.20;99.90;;;8.93;100.00;97624.66;5022723;28;20564;-82
2022/09/26 01:49:52;;;;;;;3.30;1.83;;;8.20;99.90;;;8.83;100.00;97619.78;5021839;28;20963;-81
2022/09/26 01:52:35;;;;;;;2.20;2.00;;;8.10;99.90;;;8.81;100.00;97618.34;5017727;28;20976;-81
2022/09/26 01:55:12;;;;;;;2.13;1.90;;;8.00;99.90;;;8.83;100.00;97619.78;5019214;28;21006;-81
2022/09/26 01:57:51;;;;;;;11.53;2.40;;;8.00;99.90;;;8.86;100.00;97610.75;5021104;28;20458;-81
2022/09/26 02:00:21;;;;;;;5.97;2.10;;;8.00;99.90;;;8.91;100.00;97605.81;5021856;28;20494;-81
2022/09/26 02:02:51;;;;;;;1.90;1.80;;;8.00;99.90;;;8.91;100.00;97605.81;5020931;28;20527;-81
2022/09/26 02:05:31;;;;;;;6.60;2.23;;;8.00;99.90;;;8.92;100.00;97602.22;5020459;28;20458;-81
2022/09/26 02:08:10;;;;;;;3.77;2.10;;;8.00;99.90;;;8.92;100.00;97599.59;5021203;28;20474;-81
2022/09/26 02:10:46;;;;;;;16.93;2.40;;;8.00;99.90;;;8.93;100.00;97590.78;5022450;28;20944;-81
2022/09/26 02:13:22;;;;;;;6.10;2.33;;;8.00;99.90;;;8.95;100.00;97583.59;5021304;28;20454;-81
2022/09/26 02:15:58;;;;;;;3.20;2.27;;;8.00;99.90;;;8.95;100.00;97594.00;5020626;28;20450;-81
2022/09/26 02:18:35;;;;;;;9.90;2.13;;;8.10;99.90;;;8.94;100.00;97581.97;5022376;28;20469;-81
2022/09/26 02:21:11;;;;;;;8.90;2.40;;;8.20;99.90;;;8.95;100.00;97580.97;5019674;28;20513;-81
2022/09/26 02:23:40;;;;;;;5.07;2.43;;;8.10;99.90;;;8.97;100.00;97582.41;5020237;28;20526;-81
2022/09/26 02:26:10;;;;;;;6.10;2.63;;;8.10;99.90;;;8.98;100.00;97584.00;5019510;28;21692;-81
2022/09/26 02:28:39;;;;;;;2.47;2.20;;;8.10;99.90;;;8.98;100.00;97573.59;5017763;28;20456;-81
2022/09/26 02:31:10;;;;;;;4.23;2.60;;;8.10;99.90;;;9.00;100.00;97568.97;5018615;28;20520;-81
2022/09/26 02:33:41;;;;;;;3.97;3.10;;;8.10;99.90;;;9.01;100.00;97568.00;5018836;28;20501;-81
2022/09/26 02:36:11;;;;;;;4.50;2.70;;;8.10;99.90;;;9.02;100.00;97566.19;5016016;28;20470;-82
2022/09/26 02:38:39;;;;;;;6.80;2.60;;;8.20;99.90;;;9.02;100.00;97553.94;5018427;28;20458;-81
2022/09/26 02:41:32;;;;;;;3.13;2.40;;;8.20;99.90;;;9.05;100.00;97552.78;5019647;28;20581;-81
2022/09/26 02:44:38;;;;;;;6.97;2.70;;;8.30;99.90;;;9.05;100.00;97550.97;5020295;28;20542;-81
2022/09/26 02:47:44;;;;;;;6.13;2.73;;;8.30;99.90;;;9.04;100.00;97543.31;5015748;28;20476;-81
2022/09/26 02:50:37;;;;;;;4.10;3.13;;;8.40;99.90;;;9.03;100.00;97536.50;5018044;28;20590;-82
2022/09/26 02:53:25;;;;;;;13.40;3.30;;;8.40;99.90;;;9.01;100.00;97525.47;5022108;28;20474;-80
2022/09/26 02:56:08;;;;;;;4.90;2.83;;;8.40;99.90;;;8.98;100.00;97529.25;5019829;28;20569;-81
2022/09/26 02:58:50;;;;;;;9.20;3.40;;;8.30;99.90;;;8.94;100.00;97530.63;5023972;28;20552;-80
2022/09/26 03:01:32;;;;;;;4.17;2.30;;;8.20;99.90;;;8.90;100.00;97531.19;5019908;28;21075;-81
2022/09/26 03:04:11;;;;;;;8.37;2.80;;;8.20;99.90;;;8.85;100.00;97528.34;5019875;28;20512;-81
2022/09/26 03:06:53;;;;;;;7.77;3.00;;;8.20;99.90;;;8.82;100.00;97521.69;5021451;28;20457;-80
2022/09/26 03:09:27;;;;;;;5.10;3.03;;;8.20;99.90;;;8.79;100.00;97511.66;5023160;28;20485;-91
2022/09/26 03:12:02;;;;;;;5.67;3.00;;;8.10;99.90;;;8.78;100.00;97514.47;5021257;28;20465;-80
2022/09/26 03:14:34;;;;;;;9.50;3.00;;;8.10;99.90;;;8.77;100.00;97512.84;5022027;28;20497;-79
2022/09/26 03:17:05;;;;;;;6.03;2.70;;;8.10;99.90;;;8.76;100.00;97512.03;5022326;28;20495;-80
2022/09/26 03:19:43;;;;;;;3.67;2.40;;;8.20;99.90;;;8.75;100.00;97509.59;5022367;28;20472;-80
2022/09/26 03:22:15;;;;;;;3.17;2.57;;;8.10;99.90;;;8.72;100.00;97505.56;5022188;28;21033;-90
2022/09/26 03:24:46;;;;;;;4.40;2.70;;;8.10;99.90;;;8.68;100.00;97508.75;5023647;28;20527;-80
2022/09/26 03:27:20;;;;;;;2.77;2.40;;;8.10;99.90;;;8.64;100.00;97502.31;5020497;28;20548;-80
2022/09/26 03:29:49;;;;;;;4.83;2.30;;;8.00;99.90;;;8.61;100.00;97502.69;5024165;28;20499;-80
2022/09/26 03:32:18;;;;;;;3.03;2.70;;;8.00;99.90;;;8.60;100.00;97499.28;5021548;28;20466;-81
2022/09/26 03:34:47;;;;;;;3.93;2.93;;;8.00;99.90;;;8.56;100.00;97493.63;5022844;28;20473;-80
2022/09/26 03:37:18;;;;;;;3.87;2.83;;;8.00;99.90;;;8.63;100.00;97498.09;5023274;28;20474;-80
2022/09/26 03:39:50;;;;;;;5.63;3.23;;;8.00;99.90;;;8.63;100.00;97492.88;5022693;28;20443;-80
2022/09/26 03:42:19;;;;;;;6.37;3.17;;;8.00;99.90;;;8.58;100.00;97480.41;5019742;28;20470;-79
2022/09/26 03:44:48;;;;;;;3.67;2.90;;;8.00;99.90;;;8.61;100.00;97487.06;5021878;28;20952;-80
2022/09/26 03:47:17;;;;;;;5.53;2.87;;;7.90;99.90;;;8.57;100.00;97476.97;5026100;28;20458;-80
2022/09/26 03:49:46;;;;;;;2.63;2.40;;;7.90;99.90;;;8.56;100.00;97471.97;5023886;28;20506;-80
2022/09/26 03:52:15;;;;;;;3.07;2.77;;;8.00;99.90;;;8.52;100.00;97468.94;5021334;28;20455;-81
2022/09/26 03:54:46;;;;;;;3.07;2.77;;;7.90;99.90;;;8.46;100.00;97466.28;5022082;28;20549;-80
2022/09/26 03:57:18;;;;;;;3.87;3.23;;;8.00;99.90;;;8.46;100.00;97464.47;5024869;28;20632;-81
2022/09/26 03:59:46;;;;;;;7.10;2.70;;;8.00;99.90;;;8.43;100.00;97457.06;5025812;28;20545;-80
2022/09/26 04:02:15;;;;;;;4.23;3.70;;;7.90;99.90;;;8.48;100.00;97454.66;5021156;28;20543;-80
2022/09/26 04:04:45;;;;;;;6.73;2.83;;;7.90;99.90;;;8.50;100.00;97454.50;5020841;28;20457;-81
2022/09/26 04:07:14;;;;;;;6.57;3.20;;;7.90;99.90;;;8.50;100.00;97444.06;5020680;28;20548;-80
2022/09/26 04:09:43;;;;;;;12.63;2.80;;;7.90;99.90;;;8.48;100.00;97443.44;5019340;28;20498;-81
2022/09/26 04:12:13;;;;;;;8.00;3.20;;;7.80;99.90;;;8.52;100.00;97437.66;5020733;28;20474;-81
2022/09/26 04:14:42;;;;;;;4.30;3.10;;;7.90;99.90;;;8.50;100.00;97429.22;5023115;28;20563;-80
2022/09/26 04:17:11;;;;;;;5.23;2.90;;;7.90;99.90;;;8.51;100.00;97435.25;5020200;28;20499;-80
2022/09/26 04:19:41;;;;;;;4.00;2.83;;;7.90;99.90;;;8.52;100.00;97427.25;5025115;28;20553;-80
2022/09/26 04:22:10;;;;;;;10.70;3.07;;;7.90;99.90;;;8.48;100.00;97430.41;5022138;28;20616;-81
2022/09/26 04:24:40;;;;;;;4.13;2.77;;;7.90;99.90;;;8.45;100.00;97428.19;5023195;28;20521;-80
2022/09/26 04:27:10;;;;;;;4.70;2.70;;;7.80;99.90;;;8.45;100.00;97421.19;5021020;28;20532;-80
2022/09/26 04:29:42;;;;;;;5.37;3.10;;;7.80;99.90;;;8.48;100.00;97418.19;5021098;28;20520;-80
2022/09/26 04:32:18;;;;;;;4.00;2.80;;;7.80;99.90;;;8.49;100.00;97411.19;5027166;28;20458;-92
2022/09/26 04:34:49;;;;;;;3.50;2.73;;;7.70;99.90;;;8.45;100.00;97409.94;5031182;28;20999;-80
2022/09/26 04:37:19;;;;;;;4.50;2.77;;;7.80;99.90;;;8.40;100.00;97410.50;5016842;28;20466;-79
2022/09/26 04:39:48;;;;;;;2.90;2.60;;;7.80;99.90;;;8.36;100.00;97401.47;5020563;28;20943;-80
2022/09/26 04:42:17;;;;;;;12.80;2.60;;;7.80;99.90;;;8.30;100.00;97402.22;5023338;28;21329;-80
2022/09/26 04:44:47;;;;;;;4.83;2.87;;;7.80;99.90;;;8.16;100.00;97395.25;5023989;28;20458;-80
2022/09/26 04:47:17;;;;;;;4.47;2.47;;;7.80;99.90;;;8.13;100.00;97403.44;5022011;28;20564;-80
2022/09/26 04:49:45;;;;;;;4.10;2.67;;;7.70;99.90;;;8.14;100.00;97386.84;5021395;28;20481;-79
2022/09/26 04:52:16;;;;;;;2.60;2.40;;;7.60;99.90;;;8.08;100.00;97392.81;5026489;28;20474;-87
2022/09/26 04:54:45;;;;;;;4.60;2.53;;;7.60;99.90;;;8.07;100.00;97383.38;5020551;28;20542;-79
2022/09/26 04:57:14;;;;;;;5.80;2.93;;;7.50;99.90;;;8.07;100.00;97380.78;5022148;28;20474;-79
2022/09/26 04:59:48;;;;;;;3.13;2.57;;;7.50;99.90;;;8.08;100.00;97377.19;5023742;28;20435;-79
2022/09/26 05:02:19;;;;;;;8.20;3.17;;;7.40;99.90;;;8.10;100.00;97376.00;5024039;28;20580;-79
2022/09/26 05:04:48;;;;;;;8.67;3.30;;;7.40;99.90;;;8.02;100.00;97372.69;5026264;28;20442;-79
2022/09/26 05:07:18;;;;;;;4.40;3.20;;;7.30;99.90;;;8.06;100.00;97363.53;5025019;28;20450;-79
2022/09/26 05:09:46;;;;;;;3.57;3.10;;;7.30;99.90;;;8.01;100.00;97361.50;5023305;28;20552;-81
2022/09/26 05:12:17;;;;;;;11.43;3.07;;;7.30;99.90;;;8.04;100.00;97358.53;5023499;28;20466;-79
2022/09/26 05:14:45;;;;;;;4.17;2.57;;;7.30;99.90;;;8.04;100.00;97355.13;5023979;28;20508;-79
2022/09/26 05:17:15;;;;;;;6.50;2.70;;;7.30;99.90;;;8.05;100.00;97359.34;5022669;28;20462;-79
2022/09/26 05:19:44;;;;;;;10.83;2.93;;;7.30;99.90;;;8.06;100.00;97356.53;5022696;28;20470;-79
2022/09/26 05:22:13;;;;;;;4.83;3.23;;;7.30;99.90;;;8.05;100.00;97357.50;5022983;28;20494;-78
2022/09/26 05:27:28;;;;;;;5.43;3.67;;;7.30;99.90;;;8.14;100.00;97350.38;5023458;28;20525;-79
2022/09/26 05:29:57;;;;;;;4.73;3.60;;;7.30;99.90;;;8.16;100.00;97345.00;5022111;28;20887;-79
2022/09/26 05:32:27;;;;;;;5.00;3.53;;;7.40;99.90;;;8.21;100.00;97348.63;5020512;28;20470;-79
2022/09/26 05:34:56;;;;;;;6.53;4.33;;;7.40;99.90;;;8.30;100.00;97350.13;5020091;28;20451;-79
2022/09/26 05:37:24;;;;;;;8.03;5.17;;;7.50;99.90;;;8.32;100.00;97342.13;5019791;28;20577;-79
2022/09/26 05:42:40;;;;;;;8.47;6.00;;;7.60;99.90;;;8.42;100.00;97347.81;5020167;28;20533;-79
2022/09/26 05:45:10;;;;;;;8.63;5.70;;;7.70;99.90;;;8.47;100.00;97346.22;5019727;28;20458;-79
2022/09/26 05:47:40;;;;;;;8.10;5.50;;;7.80;99.90;;;8.51;100.00;97344.06;5021286;28;20477;-79
2022/09/26 05:50:09;;;;;;;8.93;5.43;;;7.80;99.90;;;8.55;100.00;97346.09;5020876;28;20498;-78
2022/09/26 05:52:39;;;;;;;8.40;5.90;;;7.90;99.90;;;8.62;100.00;97340.09;5020176;28;20491;-78
2022/09/26 05:55:10;;;;;;;8.07;5.20;;;7.90;99.90;;;8.65;100.00;97348.34;5020420;28;20478;-79
2022/09/26 05:57:39;;;;;;;8.43;5.30;;;8.00;99.90;;;8.66;100.00;97343.94;5020295;28;20447;-79
2022/09/26 06:00:10;;;;;;;18.20;5.70;;;8.00;99.90;;;8.69;100.00;97343.56;5019646;28;21033;-79
2022/09/26 06:02:40;;;;;;;8.00;5.70;;;8.00;99.90;;;8.72;100.00;97338.75;5019520;28;20581;-79
2022/09/26 06:05:09;;;;;;;11.00;6.47;;;8.00;99.90;;;8.77;100.00;97335.59;5020110;28;20941;-79
2022/09/26 06:07:38;;;;;;;10.50;5.87;;;8.00;99.90;;;8.83;100.00;97334.81;5020504;28;20504;-79
2022/09/26 06:10:07;;;;;;;9.00;6.27;;;8.20;99.90;;;8.86;100.00;97326.59;5020650;28;20957;-80
2022/09/26 06:12:36;;;;;;;8.60;5.87;;;8.20;99.90;;;8.86;100.00;97329.19;5020560;28;20500;-79
2022/09/26 06:15:09;;;;;;;8.57;6.20;;;8.10;99.90;;;8.91;100.00;97327.66;5019856;28;20949;-79
2022/09/26 06:17:39;;;;;;;10.40;6.70;;;8.20;99.90;;;8.96;100.00;97324.44;5019929;28;20937;-78
2022/09/26 06:20:09;;;;;;;13.03;7.10;;;8.30;99.90;;;8.95;100.00;97322.84;5019798;28;20446;-79
2022/09/26 06:22:42;;;;;;;11.10;6.40;;;8.30;99.90;;;9.01;100.00;97327.28;5020459;28;20505;-78
2022/09/26 06:25:11;;;;;;;23.50;7.13;;;8.40;99.90;;;9.05;100.00;97323.28;5021117;28;20445;-79
2022/09/26 06:27:41;;;;;;;10.40;6.53;;;8.40;99.90;;;9.11;100.00;97317.28;5020209;28;20481;-79
2022/09/26 06:30:11;;;;;;;12.37;6.50;;;8.40;99.90;;;9.16;100.00;97304.47;5024751;28;20860;-78
2022/09/26 06:32:41;;;;;;;11.67;7.10;;;8.50;99.90;;;9.22;100.00;97308.91;5027014;28;20488;-79
2022/09/26 06:35:10;;;;;;;10.87;7.70;;;8.60;99.90;;;9.23;100.00;97309.69;5026752;28;20481;-79
2022/09/26 06:37:39;;;;;;;9.73;7.13;;;8.60;99.90;;;9.29;100.00;97299.28;5026448;28;20461;-79
2022/09/26 06:40:10;;;;;;;11.30;7.50;;;8.70;99.90;;;9.30;100.00;97300.88;5025603;28;20454;-79
2022/09/26 06:42:39;;;;;;;9.80;6.33;;;8.70;99.90;;;9.34;100.00;97302.09;5026246;28;20501;-79
2022/09/26 06:45:10;;;;;;;9.30;6.77;;;8.70;99.90;;;9.35;100.00;97301.09;5028176;28;20501;-78
2022/09/26 06:47:40;;;;;;;16.00;7.57;;;8.70;99.90;;;9.39;100.00;97297.09;5027501;28;20492;-79
2022/09/26 06:50:10;;;;;;;9.23;6.70;;;8.70;99.90;;;9.42;100.00;97291.47;5026377;28;20473;-79
2022/09/26 06:52:39;;;;;;;12.83;6.83;;;8.70;99.90;;;9.46;100.00;97300.53;5027544;28;20561;-79
2022/09/26 06:55:09;;;;;;;10.67;6.83;;;8.80;99.90;;;9.55;100.00;97308.94;5026587;28;20485;-79
2022/09/26 06:57:39;;;;;;;9.70;6.60;;;8.90;99.90;;;9.56;100.00;97300.94;5027348;28;20453;-79
2022/09/26 07:00:10;;;;;;;14.03;6.27;;;9.00;99.90;;;9.58;100.00;97305.94;5026556;28;20457;-79
2022/09/26 07:02:50;;;;;;;11.13;6.60;;;9.00;99.90;;;9.54;100.00;97294.31;5027402;28;20569;-79
2022/09/26 07:05:19;;;;;;;7.40;5.47;;;8.90;99.90;;;9.58;100.00;97292.88;5025902;28;20446;-79
2022/09/26 07:07:48;;;;;;;10.13;6.00;;;9.00;99.90;;;9.58;100.00;97291.09;5025725;28;20464;-79
2022/09/26 07:10:18;;;;;;;10.47;6.37;;;9.00;99.90;;;9.60;100.00;97286.50;5024714;28;20467;-79
2022/09/26 07:12:48;;;;;;;19.50;6.40;;;9.00;99.90;;;9.66;100.00;97284.88;5025016;28;20479;-79
2022/09/26 07:15:19;;;;;;;10.43;5.87;;;9.10;99.90;;;9.70;100.00;97286.09;5024601;28;20532;-79
2022/09/26 07:17:49;;;;;;;6.97;5.20;;;9.20;99.90;;;9.68;100.00;97284.69;5024650;28;20529;-79
2022/09/26 07:20:20;;;;;;;7.97;5.10;;;9.10;99.90;;;9.67;100.00;97281.28;5025492;28;20485;-79
2022/09/26 07:22:49;;;;;;;7.27;4.83;;;9.10;99.90;;;9.72;100.00;97272.84;5026218;28;20907;-79
2022/09/26 07:25:18;;;;;;;6.27;4.27;;;9.20;99.90;;;9.76;100.00;97274.03;5026614;28;20443;-79
2022/09/26 07:27:51;;;;;;;4.73;3.77;;;9.30;99.90;;;9.76;100.00;97271.41;5024733;28;21026;-78
2022/09/26 07:30:19;;;;;;;6.63;4.70;;;9.20;99.90;;;9.78;100.00;97264.22;5022375;28;20450;-79
2022/09/26 07:32:49;;;;;;;7.03;4.13;;;9.30;99.90;;;9.77;100.00;97267.81;5023863;28;20482;-79
2022/09/26 07:35:18;;;;;;;6.87;4.30;;;9.20;99.90;;;9.81;100.00;97263.81;5023767;28;20477;-79
2022/09/26 07:37:52;;;;;;;5.90;4.37;;;9.30;99.90;;;9.83;100.00;97257.38;5023345;28;20823;-79
2022/09/26 07:40:21;;;;;;;7.30;3.80;;;9.30;99.90;;;9.88;100.00;97259.38;5022092;28;20451;-79
2022/09/26 07:42:51;;;;;;;7.90;4.30;;;9.40;99.90;;;9.93;100.00;97257.75;5023321;28;20521;-79
2022/09/26 07:51:12;;;;;;;8.10;4.27;;;9.50;99.90;;;10.00;100.00;97255.13;5021453;28;20485;-78
2022/09/26 07:53:41;;;;;;;5.57;3.60;;;9.50;99.90;;;10.03;100.00;97254.75;5023831;28;20501;-79
2022/09/26 07:56:10;;;;;;;10.07;4.30;;;9.40;99.90;;;10.03;100.00;97250.31;5025729;28;20502;-79
2022/09/26 07:58:41;;;;;;;6.63;3.83;;;9.60;99.90;;;10.10;100.00;97252.91;5025076;28;21023;-79
2022/09/26 08:01:12;;;;;;;7.43;3.33;;;9.60;99.90;;;10.07;100.00;97245.50;5024180;28;20451;-79
2022/09/26 08:03:46;;;;;;;4.10;3.63;;;9.50;99.90;;;10.13;100.00;97249.91;5024289;28;20489;-78
2022/09/26 08:06:19;;;;;;;3.83;3.07;;;9.50;99.90;;;10.15;100.00;97247.13;5025355;28;20530;-79
2022/09/26 08:08:48;;;;;;;5.47;3.57;;;9.60;99.90;;;10.17;100.00;97240.66;5023764;28;20531;-79
2022/09/26 08:11:20;;;;;;;5.80;3.47;;;9.60;99.90;;;10.22;100.00;97237.47;5022432;28;20499;-78
2022/09/26 08:13:50;;;;;;;5.00;3.70;;;9.60;99.90;;;10.26;100.00;97239.47;5023229;28;20478;-80
2022/09/26 08:16:22;;;;;;;3.93;3.20;;;9.70;99.90;;;10.31;100.00;97236.25;5023948;28;20515;-79
2022/09/26 08:18:54;;;;;;;6.30;3.90;;;9.80;99.90;;;10.28;100.00;97227.00;5024109;28;20444;-79
2022/09/26 08:21:23;;;;;;;5.90;3.77;;;9.90;99.90;;;10.30;100.00;97224.19;5023727;28;20573;-79
2022/09/26 08:23:52;;;;;;;8.20;4.10;;;9.80;99.90;;;10.35;100.00;97232.19;5025429;28;20585;-79
2022/09/26 08:26:22;;;;;;;3.80;3.30;;;9.80;99.90;;;10.36;100.00;97233.81;5025142;28;20497;-79
2022/09/26 08:28:52;;;;;;;7.43;4.87;;;9.80;99.90;;;10.40;100.00;97219.31;5024739;28;20524;-79
2022/09/26 08:31:21;;;;;;;6.43;3.87;;;9.90;99.90;;;10.48;100.00;97217.28;5024070;28;20548;-78
2022/09/26 08:33:51;;;;;;;5.80;4.40;;;10.00;99.90;;;10.42;100.00;97212.88;5025595;28;20809;-81
2022/09/26 08:36:20;;;;;;;9.73;4.63;;;9.80;99.90;;;10.49;100.00;97213.66;5024630;28;20522;-79
2022/09/26 08:38:50;;;;;;;4.57;3.80;;;9.90;99.90;;;10.52;100.00;97215.03;5024568;28;20646;-79
2022/09/26 08:41:43;;;;;;;6.37;4.87;;;9.90;99.90;;;10.59;100.00;97208.78;5024019;28;20537;-79
2022/09/26 08:44:37;;;;;;;9.73;4.23;;;10.00;99.90;;;10.67;100.00;97220.03;5024223;28;20593;-79
2022/09/26 08:47:17;;;;;;;8.23;4.30;;;10.20;99.90;;;10.72;100.00;97212.38;5025907;28;20464;-79
2022/09/26 08:50:02;;;;;;;7.00;4.90;;;10.20;99.90;;;10.80;100.00;97214.72;5024804;28;20938;-79
2022/09/26 08:52:42;;;;;;;7.00;3.60;;;10.30;99.90;;;10.85;100.00;97212.31;5024325;28;20470;-79
2022/09/26 08:55:17;;;;;;;9.40;4.60;;;10.40;99.90;;;10.90;100.00;97207.22;5020804;28;20469;-79
2022/09/26 08:57:53;;;;;;;4.70;3.50;;;10.50;99.90;;;10.92;100.00;97200.00;5020886;28;20561;-79
2022/09/26 09:00:24;;;;;;;7.20;4.20;;;10.40;99.90;;;10.89;100.00;97195.19;5021378;28;20482;-79
2022/09/26 09:03:06;;;;;;;7.33;4.10;;;10.30;99.90;;;11.00;100.00;97208.38;5021061;28;20438;-79
2022/09/26 09:05:39;;;;;;;6.60;4.20;;;10.40;99.90;;;11.08;100.00;97204.72;5021700;28;20866;-79
2022/09/26 09:08:20;;;;;;;5.40;3.27;;;10.60;99.90;;;11.11;100.00;97196.44;5021201;28;20891;-79
2022/09/26 09:11:05;;;;;;;7.20;3.30;;;10.60;99.90;;;11.13;100.00;97193.63;5023265;28;20537;-78
2022/09/26 09:13:55;;;;;;;11.27;4.30;;;10.70;99.90;;;11.14;100.00;97193.44;5025268;28;20529;-79
2022/09/26 09:16:44;;;;;;;8.30;3.57;;;10.70;99.90;;;11.16;100.00;97193.19;5025674;28;20459;-80
2022/09/26 09:19:27;;;;;;;4.53;3.20;;;10.80;99.90;;;11.18;100.00;97186.72;5024104;28;20439;-79
2022/09/26 09:22:25;;;;;;;3.70;3.20;;;10.80;99.90;;;11.18;100.00;97181.50;5023299;28;20446;-79
2022/09/26 09:25:02;;;;;;;5.20;3.37;;;10.70;99.90;;;11.25;100.00;97179.63;5023753;28;20498;-79
2022/09/26 09:27:53;;;;;;;4.77;3.53;;;10.70;99.90;;;11.27;100.00;97175.00;5023894;28;20556;-79
2022/09/26 09:30:28;;;;;;;4.73;2.80;;;10.70;99.90;;;11.32;100.00;97177.78;5023137;28;20492;-79
2022/09/26 09:33:03;;;;;;;8.40;3.00;;;10.80;99.90;;;11.40;100.00;97169.66;5022318;28;20488;-79
2022/09/26 09:35:42;;;;;;;9.13;3.30;;;10.90;99.90;;;11.41;100.00;97171.28;5023305;28;20881;-79
2022/09/26 09:38:19;;;;;;;5.17;3.00;;;11.00;99.90;;;11.40;100.00;97163.63;5024452;28;20560;-79
2022/09/26 09:40:57;;;;;;;4.63;2.70;;;10.90;99.90;;;11.47;100.00;97161.75;5023620;28;20541;-79
2022/09/26 09:43:36;;;;;;;5.53;2.80;;;11.00;99.90;;;11.49;100.00;97163.13;5024968;28;21131;-78
2022/09/26 09:46:15;;;;;;;6.83;3.37;;;11.00;99.90;;;11.49;100.00;97157.91;5024205;28;20442;-79
2022/09/26 09:48:47;;;;;;;4.40;2.60;;;11.00;99.90;;;11.56;100.00;97153.41;5023043;28;20444;-80
2022/09/26 09:51:31;;;;;;;5.23;2.63;;;11.10;99.90;;;11.67;100.00;97138.81;5022498;28;20509;-79
2022/09/26 09:54:36;;;;;;;5.90;2.47;;;11.20;99.90;;;11.74;100.00;97138.78;5022075;28;20948;-80
2022/09/26 09:57:41;;;;;;;2.83;2.43;;;11.20;99.90;;;11.84;100.00;97132.03;5023848;28;20451;-80
2022/09/26 10:00:16;;;;;;;2.57;2.00;;;11.30;99.90;;;11.90;100.00;97127.75;5023894;28;20525;-80
2022/09/26 10:02:59;;;;;;;3.30;2.40;;;11.40;99.90;;;11.98;100.00;97122.19;5022151;28;20454;-80
2022/09/26 10:05:43;;;;;;;4.43;2.47;;;11.50;99.90;;;12.07;100.00;97124.34;5026143;28;20524;-80
2022/09/26 10:08:15;;;;;;;6.60;3.00;;;11.60;99.90;;;12.10;100.00;97118.66;5024768;28;20447;-80
2022/09/26 10:11:11;;;;;;;4.60;2.60;;;11.70;99.90;;;12.20;100.00;97117.31;5025419;28;20455;-80
2022/09/26 10:13:44;;;;;;;3.20;1.87;;;11.70;99.90;;;12.26;100.00;97113.81;5021425;28;20454;-80
2022/09/26 10:16:14;;;;;;;12.37;2.40;;;11.90;99.90;;;12.25;100.00;97114.88;5024025;28;20492;-80
2022/09/26 10:18:59;;;;;;;5.93;2.40;;;11.70;99.90;;;12.23;100.00;97111.63;5021805;28;20996;-80
2022/09/26 10:21:38;;;;;;;4.53;2.50;;;11.80;99.90;;;12.31;100.00;97108.72;5023452;28;20451;-80
2022/09/26 10:24:21;;;;;;;4.77;2.10;;;11.90;99.90;;;12.31;100.00;97114.78;5024125;28;20566;-80
2022/09/26 10:26:51;;;;;;;3.23;1.77;;;11.90;99.90;;;12.34;100.00;97109.09;5026171;28;20445;-79
2022/09/26 10:29:32;;;;;;;4.50;1.97;;;11.90;99.90;;;12.42;100.00;97095.69;5024652;28;20459;-80
2022/09/26 10:32:02;;;;;;;6.87;2.60;;;12.00;99.90;;;12.45;100.00;97084.75;5023404;28;20512;-80
2022/09/26 10:34:34;;;;;;;7.93;2.27;;;12.10;99.90;;;12.45;100.00;97095.22;5023378;28;20981;-79
2022/09/26 10:37:23;;;;;;;4.87;1.67;;;12.00;99.90;;;12.50;100.00;97090.09;5024090;28;20533;-80
2022/09/26 10:42:45;;;;;;;6.60;1.57;;;12.10;99.90;;;12.61;100.00;97081.50;5023755;28;20438;-80
2022/09/26 10:45:19;;;;;;;2.37;1.90;;;12.20;99.90;;;12.65;100.00;97088.91;5023800;28;20521;-80
2022/09/26 10:47:50;;;;;;;2.50;1.63;;;12.20;99.90;;;12.70;100.00;97086.44;5023567;28;20459;-80
2022/09/26 10:50:26;;;;;;;9.03;1.60;;;12.30;99.90;;;12.76;100.00;97075.03;5023531;28;20438;-80
2022/09/26 10:53:01;;;;;;;8.73;2.00;;;12.30;99.90;;;12.82;100.00;97076.75;5023565;28;20536;-80
2022/09/26 10:55:39;;;;;;;4.30;1.70;;;12.40;99.90;;;12.85;100.00;97074.47;5023563;28;20485;-80
2022/09/26 10:58:20;;;;;;;1.67;1.30;;;12.50;99.90;;;12.84;100.00;97072.09;5026638;28;20433;-79
2022/09/26 11:00:50;;;;;;;2.60;1.63;;;12.40;99.90;;;12.83;100.00;97070.47;5027175;28;20454;-80
2022/09/26 11:03:25;;;;;;;1.80;1.40;;;12.40;99.90;;;12.90;100.00;97071.19;5026112;28;20525;-80
2022/09/26 11:05:56;;;;;;;1.83;1.37;;;12.40;99.90;;;12.94;100.00;97067.09;5026659;28;20535;-80